sensor_id;sensor_type;location;lat;lon;timestamp;P1;durP1;ratioP1;P2;durP2;ratioP2
12800;SDS011;6464;42.494;27.470;2023-09-18T05:50:30;6.50;;;6.30;;
12800;SDS011;6464;42.494;27.470;2023-09-18T05:53:28;6.80;;;6.60;;
12800;SDS011;6464;42.494;27.470;2023-09-18T05:55:56;6.60;;;6.40;;
12800;SDS011;6464;42.494;27.470;2023-09-18T05:58:29;6.80;;;6.60;;
12800;SDS011;6464;42.494;27.470;2023-09-18T06:01:00;6.40;;;6.20;;
12800;SDS011;6464;42.494;27.470;2023-09-18T06:03:29;6.70;;;6.50;;
12800;SDS011;6464;42.494;27.470;2023-09-18T06:06:00;6.80;;;6.60;;
12800;SDS011;6464;42.494;27.470;2023-09-18T06:08:28;6.53;;;6.32;;
12800;SDS011;6464;42.494;27.470;2023-09-18T06:10:55;6.40;;;6.20;;
12800;SDS011;6464;42.494;27.470;2023-09-18T06:13:23;6.30;;;6.10;;
12800;SDS011;6464;42.494;27.470;2023-09-18T06:15:50;6.40;;;6.20;;
12800;SDS011;6464;42.494;27.470;2023-09-18T06:18:19;7.00;;;6.80;;
12800;SDS011;6464;42.494;27.470;2023-09-18T06:20:48;6.70;;;6.50;;
12800;SDS011;6464;42.494;27.470;2023-09-18T06:23:15;6.85;;;6.65;;
12800;SDS011;6464;42.494;27.470;2023-09-18T06:25:42;6.88;;;6.68;;
12800;SDS011;6464;42.494;27.470;2023-09-18T06:28:09;6.97;;;6.78;;
12800;SDS011;6464;42.494;27.470;2023-09-18T06:30:37;6.90;;;6.70;;
12800;SDS011;6464;42.494;27.470;2023-09-18T06:33:04;6.90;;;6.70;;
12800;SDS011;6464;42.494;27.470;2023-09-18T06:35:31;6.80;;;6.60;;
12800;SDS011;6464;42.494;27.470;2023-09-18T06:38:00;7.03;;;6.82;;
12800;SDS011;6464;42.494;27.470;2023-09-18T06:40:26;6.95;;;6.75;;
12800;SDS011;6464;42.494;27.470;2023-09-18T06:42:58;7.10;;;6.90;;
12800;SDS011;6464;42.494;27.470;2023-09-18T06:45:25;6.65;;;6.45;;
12800;SDS011;6464;42.494;27.470;2023-09-18T06:47:52;6.90;;;6.70;;
12800;SDS011;6464;42.494;27.470;2023-09-18T06:50:19;6.90;;;6.70;;
12800;SDS011;6464;42.494;27.470;2023-09-18T06:52:47;7.40;;;7.20;;
12800;SDS011;6464;42.494;27.470;2023-09-18T06:55:16;7.30;;;7.10;;
12800;SDS011;6464;42.494;27.470;2023-09-18T06:57:43;7.20;;;7.00;;
12800;SDS011;6464;42.494;27.470;2023-09-18T07:00:10;7.10;;;6.90;;
12800;SDS011;6464;42.494;27.470;2023-09-18T07:02:40;7.18;;;6.97;;
12800;SDS011;6464;42.494;27.470;2023-09-18T07:05:06;7.10;;;6.90;;
12800;SDS011;6464;42.494;27.470;2023-09-18T07:07:33;7.40;;;7.20;;
12800;SDS011;6464;42.494;27.470;2023-09-18T07:10:00;7.10;;;6.90;;
12800;SDS011;6464;42.494;27.470;2023-09-18T07:12:29;7.22;;;7.03;;
12800;SDS011;6464;42.494;27.470;2023-09-18T07:14:56;7.40;;;7.20;;
12800;SDS011;6464;42.494;27.470;2023-09-18T07:17:24;7.50;;;7.30;;
12800;SDS011;6464;42.494;27.470;2023-09-18T07:19:51;7.25;;;7.05;;
12800;SDS011;6464;42.494;27.470;2023-09-18T07:22:18;7.50;;;7.30;;
12800;SDS011;6464;42.494;27.470;2023-09-18T07:24:45;7.50;;;7.30;;
12800;SDS011;6464;42.494;27.470;2023-09-18T07:27:12;7.60;;;7.40;;
12800;SDS011;6464;42.494;27.470;2023-09-18T07:29:41;7.70;;;7.50;;
12800;SDS011;6464;42.494;27.470;2023-09-18T07:32:07;7.20;;;7.00;;
12800;SDS011;6464;42.494;27.470;2023-09-18T07:34:38;7.57;;;7.38;;
12800;SDS011;6464;42.494;27.470;2023-09-18T07:37:05;7.60;;;7.40;;
12800;SDS011;6464;42.494;27.470;2023-09-18T07:39:32;7.70;;;7.50;;
12800;SDS011;6464;42.494;27.470;2023-09-18T07:41:59;7.40;;;7.20;;
12800;SDS011;6464;42.494;27.470;2023-09-18T07:44:26;7.78;;;7.57;;
12800;SDS011;6464;42.494;27.470;2023-09-18T07:46:54;7.50;;;7.30;;
12800;SDS011;6464;42.494;27.470;2023-09-18T07:49:21;7.55;;;7.35;;
12800;SDS011;6464;42.494;27.470;2023-09-18T07:51:48;7.30;;;7.10;;
12800;SDS011;6464;42.494;27.470;2023-09-18T07:54:14;7.40;;;7.20;;
12800;SDS011;6464;42.494;27.470;2023-09-18T07:56:42;7.75;;;7.55;;
12800;SDS011;6464;42.494;27.470;2023-09-18T07:59:09;7.68;;;7.47;;
12800;SDS011;6464;42.494;27.470;2023-09-18T08:01:36;7.70;;;7.50;;
12800;SDS011;6464;42.494;27.470;2023-09-18T08:04:05;7.40;;;7.20;;
12800;SDS011;6464;42.494;27.470;2023-09-18T08:06:32;7.60;;;7.40;;
12800;SDS011;6464;42.494;27.470;2023-09-18T08:09:00;7.72;;;7.53;;
12800;SDS011;6464;42.494;27.470;2023-09-18T08:11:27;7.80;;;7.60;;
12800;SDS011;6464;42.494;27.470;2023-09-18T08:13:53;7.70;;;7.50;;
12800;SDS011;6464;42.494;27.470;2023-09-18T08:16:21;7.80;;;7.60;;
12800;SDS011;6464;42.494;27.470;2023-09-18T08:18:47;7.40;;;7.20;;
12800;SDS011;6464;42.494;27.470;2023-09-18T08:21:16;7.45;;;7.25;;
12800;SDS011;6464;42.494;27.470;2023-09-18T08:23:43;7.55;;;7.35;;
12800;SDS011;6464;42.494;27.470;2023-09-18T08:26:10;7.78;;;7.57;;
12800;SDS011;6464;42.494;27.470;2023-09-18T08:28:37;7.68;;;7.47;;
12800;SDS011;6464;42.494;27.470;2023-09-18T08:31:08;7.60;;;7.40;;
12800;SDS011;6464;42.494;27.470;2023-09-18T08:33:35;7.43;;;7.22;;
12800;SDS011;6464;42.494;27.470;2023-09-18T08:36:02;7.47;;;7.28;;
12800;SDS011;6464;42.494;27.470;2023-09-18T08:38:30;7.22;;;7.03;;
12800;SDS011;6464;42.494;27.470;2023-09-18T08:40:58;7.30;;;7.10;;
12800;SDS011;6464;42.494;27.470;2023-09-18T08:43:25;7.30;;;7.10;;
12800;SDS011;6464;42.494;27.470;2023-09-18T08:45:54;7.30;;;7.10;;
12800;SDS011;6464;42.494;27.470;2023-09-18T08:48:26;7.10;;;6.90;;
12800;SDS011;6464;42.494;27.470;2023-09-18T08:51:00;7.10;;;6.90;;
12800;SDS011;6464;42.494;27.470;2023-09-18T08:53:28;7.00;;;6.80;;
12800;SDS011;6464;42.494;27.470;2023-09-18T08:55:57;7.00;;;6.80;;
12800;SDS011;6464;42.494;27.470;2023-09-18T08:58:27;7.20;;;7.00;;
12800;SDS011;6464;42.494;27.470;2023-09-18T09:00:59;7.22;;;7.03;;
12800;SDS011;6464;42.494;27.470;2023-09-18T09:03:28;6.85;;;6.65;;
12800;SDS011;6464;42.494;27.470;2023-09-18T09:05:56;7.07;;;6.88;;
12800;SDS011;6464;42.494;27.470;2023-09-18T09:08:26;7.20;;;7.00;;
12800;SDS011;6464;42.494;27.470;2023-09-18T09:10:54;7.10;;;6.90;;
12800;SDS011;6464;42.494;27.470;2023-09-18T09:13:24;7.30;;;7.10;;
12800;SDS011;6464;42.494;27.470;2023-09-18T09:15:52;7.13;;;6.93;;
12800;SDS011;6464;42.494;27.470;2023-09-18T09:18:21;7.00;;;6.80;;
12800;SDS011;6464;42.494;27.470;2023-09-18T09:20:52;7.00;;;6.80;;
12800;SDS011;6464;42.494;27.470;2023-09-18T09:23:23;7.10;;;6.90;;
12800;SDS011;6464;42.494;27.470;2023-09-18T09:25:50;7.00;;;6.80;;
12800;SDS011;6464;42.494;27.470;2023-09-18T09:28:26;6.80;;;6.60;;
12800;SDS011;6464;42.494;27.470;2023-09-18T09:30:59;7.20;;;7.00;;
12800;SDS011;6464;42.494;27.470;2023-09-18T09:33:28;7.10;;;6.90;;
12800;SDS011;6464;42.494;27.470;2023-09-18T09:35:56;7.20;;;7.00;;
12800;SDS011;6464;42.494;27.470;2023-09-18T09:38:27;7.10;;;6.90;;
12800;SDS011;6464;42.494;27.470;2023-09-18T09:40:56;7.20;;;7.00;;
12800;SDS011;6464;42.494;27.470;2023-09-18T09:43:24;7.15;;;6.95;;
12800;SDS011;6464;42.494;27.470;2023-09-18T09:45:57;7.00;;;6.80;;
12800;SDS011;6464;42.494;27.470;2023-09-18T09:48:25;7.30;;;7.10;;
12800;SDS011;6464;42.494;27.470;2023-09-18T09:50:52;7.20;;;7.00;;
12800;SDS011;6464;42.494;27.470;2023-09-18T09:53:41;7.30;;;7.10;;
12800;SDS011;6464;42.494;27.470;2023-09-18T09:56:09;7.28;;;7.07;;
12800;SDS011;6464;42.494;27.470;2023-09-18T09:58:36;7.30;;;7.10;;
12800;SDS011;6464;42.494;27.470;2023-09-18T10:01:05;7.30;;;7.10;;
12800;SDS011;6464;42.494;27.470;2023-09-18T10:03:36;7.88;;;7.68;;
12800;SDS011;6464;42.494;27.470;2023-09-18T10:06:05;7.80;;;7.60;;
12800;SDS011;6464;42.494;27.470;2023-09-18T10:08:33;7.55;;;7.35;;
12800;SDS011;6464;42.494;27.470;2023-09-18T10:11:01;7.57;;;7.38;;
12800;SDS011;6464;42.494;27.470;2023-09-18T10:13:36;8.60;;;8.30;;
12800;SDS011;6464;42.494;27.470;2023-09-18T10:16:09;7.88;;;7.68;;
12800;SDS011;6464;42.494;27.470;2023-09-18T10:18:42;8.05;;;7.85;;
12800;SDS011;6464;42.494;27.470;2023-09-18T10:21:25;8.20;;;8.00;;
12800;SDS011;6464;42.494;27.470;2023-09-18T10:23:59;10.07;;;9.73;;
12800;SDS011;6464;42.494;27.470;2023-09-18T10:26:32;9.48;;;9.18;;
12800;SDS011;6464;42.494;27.470;2023-09-18T10:29:03;9.30;;;9.00;;
12800;SDS011;6464;42.494;27.470;2023-09-18T10:31:37;9.40;;;9.10;;
12800;SDS011;6464;42.494;27.470;2023-09-18T10:34:06;8.98;;;8.68;;
12800;SDS011;6464;42.494;27.470;2023-09-18T10:36:34;8.05;;;7.85;;
12800;SDS011;6464;42.494;27.470;2023-09-18T10:39:02;9.35;;;9.05;;
12800;SDS011;6464;42.494;27.470;2023-09-18T10:41:33;8.98;;;8.68;;
12800;SDS011;6464;42.494;27.470;2023-09-18T10:44:01;8.07;;;7.88;;
12800;SDS011;6464;42.494;27.470;2023-09-18T10:46:29;8.88;;;8.57;;
12800;SDS011;6464;42.494;27.470;2023-09-18T10:48:59;8.90;;;8.60;;
12800;SDS011;6464;42.494;27.470;2023-09-18T10:51:28;9.50;;;9.20;;
12800;SDS011;6464;42.494;27.470;2023-09-18T10:53:58;7.80;;;7.60;;
12800;SDS011;6464;42.494;27.470;2023-09-18T10:56:25;9.23;;;8.93;;
12800;SDS011;6464;42.494;27.470;2023-09-18T10:58:58;7.88;;;7.68;;
12800;SDS011;6464;42.494;27.470;2023-09-18T11:01:27;9.25;;;8.95;;
12800;SDS011;6464;42.494;27.470;2023-09-18T11:03:57;9.05;;;8.75;;
12800;SDS011;6464;42.494;27.470;2023-09-18T11:06:28;9.30;;;9.00;;
12800;SDS011;6464;42.494;27.470;2023-09-18T11:08:59;9.43;;;9.13;;
12800;SDS011;6464;42.494;27.470;2023-09-18T11:11:29;9.13;;;8.82;;
12800;SDS011;6464;42.494;27.470;2023-09-18T11:13:58;9.25;;;8.95;;
12800;SDS011;6464;42.494;27.470;2023-09-18T11:16:34;9.30;;;9.00;;
12800;SDS011;6464;42.494;27.470;2023-09-18T11:19:11;7.63;;;7.43;;
12800;SDS011;6464;42.494;27.470;2023-09-18T11:21:40;7.50;;;7.30;;
12800;SDS011;6464;42.494;27.470;2023-09-18T11:24:08;7.28;;;7.07;;
12800;SDS011;6464;42.494;27.470;2023-09-18T11:26:43;7.32;;;7.13;;
12800;SDS011;6464;42.494;27.470;2023-09-18T11:29:13;7.45;;;7.25;;
12800;SDS011;6464;42.494;27.470;2023-09-18T11:31:43;7.53;;;7.32;;
12800;SDS011;6464;42.494;27.470;2023-09-18T11:34:12;7.70;;;7.50;;
12800;SDS011;6464;42.494;27.470;2023-09-18T11:36:41;7.72;;;7.53;;
12800;SDS011;6464;42.494;27.470;2023-09-18T11:39:09;7.35;;;7.15;;
12800;SDS011;6464;42.494;27.470;2023-09-18T11:41:37;7.70;;;7.50;;
12800;SDS011;6464;42.494;27.470;2023-09-18T11:47:06;7.45;;;7.25;;
12800;SDS011;6464;42.494;27.470;2023-09-18T11:49:37;7.60;;;7.40;;
12800;SDS011;6464;42.494;27.470;2023-09-18T11:52:09;7.50;;;7.30;;
12800;SDS011;6464;42.494;27.470;2023-09-18T11:54:39;7.70;;;7.50;;
12800;SDS011;6464;42.494;27.470;2023-09-18T11:57:06;7.70;;;7.50;;
12800;SDS011;6464;42.494;27.470;2023-09-18T11:59:34;7.90;;;7.70;;
12800;SDS011;6464;42.494;27.470;2023-09-18T12:02:03;7.90;;;7.70;;
12800;SDS011;6464;42.494;27.470;2023-09-18T12:04:33;7.70;;;7.50;;
12800;SDS011;6464;42.494;27.470;2023-09-18T12:07:00;8.50;;;8.20;;
12800;SDS011;6464;42.494;27.470;2023-09-18T12:09:31;8.48;;;8.18;;
12800;SDS011;6464;42.494;27.470;2023-09-18T12:11:58;8.43;;;8.13;;
12800;SDS011;6464;42.494;27.470;2023-09-18T12:14:30;8.38;;;8.07;;
12800;SDS011;6464;42.494;27.470;2023-09-18T12:16:59;8.50;;;8.20;;
12800;SDS011;6464;42.494;27.470;2023-09-18T12:19:27;8.02;;;7.82;;
12800;SDS011;6464;42.494;27.470;2023-09-18T12:21:55;8.15;;;7.90;;
12800;SDS011;6464;42.494;27.470;2023-09-18T12:24:22;7.90;;;7.70;;
12800;SDS011;6464;42.494;27.470;2023-09-18T12:26:50;8.00;;;7.80;;
12800;SDS011;6464;42.494;27.470;2023-09-18T12:29:18;8.10;;;7.90;;
12800;SDS011;6464;42.494;27.470;2023-09-18T12:31:45;9.02;;;8.73;;
12800;SDS011;6464;42.494;27.470;2023-09-18T12:34:16;8.30;;;8.05;;
12800;SDS011;6464;42.494;27.470;2023-09-18T12:36:43;8.90;;;8.60;;
12800;SDS011;6464;42.494;27.470;2023-09-18T12:39:12;8.05;;;7.85;;
12800;SDS011;6464;42.494;27.470;2023-09-18T12:41:41;8.70;;;8.40;;
12800;SDS011;6464;42.494;27.470;2023-09-18T12:44:11;8.70;;;8.40;;
12800;SDS011;6464;42.494;27.470;2023-09-18T12:46:39;8.52;;;8.23;;
12800;SDS011;6464;42.494;27.470;2023-09-18T12:49:17;8.52;;;8.23;;
12800;SDS011;6464;42.494;27.470;2023-09-18T12:51:53;8.38;;;8.07;;
12800;SDS011;6464;42.494;27.470;2023-09-18T12:54:21;8.52;;;8.23;;
12800;SDS011;6464;42.494;27.470;2023-09-18T12:56:48;8.18;;;7.97;;
12800;SDS011;6464;42.494;27.470;2023-09-18T12:59:16;8.18;;;7.97;;
12800;SDS011;6464;42.494;27.470;2023-09-18T13:01:45;8.18;;;7.95;;
12800;SDS011;6464;42.494;27.470;2023-09-18T13:04:13;9.00;;;8.70;;
12800;SDS011;6464;42.494;27.470;2023-09-18T13:06:40;8.20;;;8.00;;
12800;SDS011;6464;42.494;27.470;2023-09-18T13:09:17;8.45;;;8.15;;
12800;SDS011;6464;42.494;27.470;2023-09-18T13:11:54;8.41;;;8.13;;
12800;SDS011;6464;42.494;27.470;2023-09-18T13:14:23;8.63;;;8.32;;
12800;SDS011;6464;42.494;27.470;2023-09-18T13:16:50;8.27;;;8.07;;
12800;SDS011;6464;42.494;27.470;2023-09-18T13:19:17;8.48;;;8.18;;
12800;SDS011;6464;42.494;27.470;2023-09-18T13:21:48;7.70;;;7.50;;
12800;SDS011;6464;42.494;27.470;2023-09-18T13:24:25;7.50;;;7.30;;
12800;SDS011;6464;42.494;27.470;2023-09-18T13:26:53;7.60;;;7.40;;
12800;SDS011;6464;42.494;27.470;2023-09-18T13:29:21;7.88;;;7.68;;
12800;SDS011;6464;42.494;27.470;2023-09-18T13:31:50;7.97;;;7.78;;
12800;SDS011;6464;42.494;27.470;2023-09-18T13:34:17;7.90;;;7.70;;
12800;SDS011;6464;42.494;27.470;2023-09-18T13:36:44;7.70;;;7.50;;
12800;SDS011;6464;42.494;27.470;2023-09-18T13:39:11;7.60;;;7.40;;
12800;SDS011;6464;42.494;27.470;2023-09-18T13:41:38;7.60;;;7.40;;
12800;SDS011;6464;42.494;27.470;2023-09-18T13:44:06;7.60;;;7.40;;
12800;SDS011;6464;42.494;27.470;2023-09-18T13:46:33;7.45;;;7.25;;
12800;SDS011;6464;42.494;27.470;2023-09-18T13:49:03;7.50;;;7.30;;
12800;SDS011;6464;42.494;27.470;2023-09-18T13:51:30;7.68;;;7.47;;
12800;SDS011;6464;42.494;27.470;2023-09-18T13:53:58;7.82;;;7.63;;
12800;SDS011;6464;42.494;27.470;2023-09-18T13:56:24;7.82;;;7.63;;
12800;SDS011;6464;42.494;27.470;2023-09-18T13:58:54;7.47;;;7.28;;
12800;SDS011;6464;42.494;27.470;2023-09-18T14:01:21;7.40;;;7.20;;
12800;SDS011;6464;42.494;27.470;2023-09-18T14:03:50;7.78;;;7.57;;
12800;SDS011;6464;42.494;27.470;2023-09-18T14:06:20;7.93;;;7.72;;
12800;SDS011;6464;42.494;27.470;2023-09-18T14:08:47;7.88;;;7.68;;
12800;SDS011;6464;42.494;27.470;2023-09-18T14:11:13;8.10;;;7.90;;
12800;SDS011;6464;42.494;27.470;2023-09-18T14:13:40;8.20;;;8.00;;
12800;SDS011;6464;42.494;27.470;2023-09-18T14:16:08;8.15;;;7.95;;
12800;SDS011;6464;42.494;27.470;2023-09-18T14:18:36;7.78;;;7.57;;
12800;SDS011;6464;42.494;27.470;2023-09-18T14:21:03;7.88;;;7.68;;
12800;SDS011;6464;42.494;27.470;2023-09-18T14:23:31;7.68;;;7.47;;
12800;SDS011;6464;42.494;27.470;2023-09-18T14:26:00;7.85;;;7.65;;
12800;SDS011;6464;42.494;27.470;2023-09-18T14:28:27;7.68;;;7.47;;
12800;SDS011;6464;42.494;27.470;2023-09-18T14:30:54;7.80;;;7.60;;
12800;SDS011;6464;42.494;27.470;2023-09-18T14:33:21;7.80;;;7.60;;
12800;SDS011;6464;42.494;27.470;2023-09-18T14:35:48;7.82;;;7.63;;
12800;SDS011;6464;42.494;27.470;2023-09-18T14:38:16;7.78;;;7.57;;
12800;SDS011;6464;42.494;27.470;2023-09-18T14:40:44;7.80;;;7.60;;
12800;SDS011;6464;42.494;27.470;2023-09-18T14:43:12;7.80;;;7.60;;
12800;SDS011;6464;42.494;27.470;2023-09-18T14:45:39;7.80;;;7.60;;
12800;SDS011;6464;42.494;27.470;2023-09-18T14:48:06;7.55;;;7.35;;
12800;SDS011;6464;42.494;27.470;2023-09-18T14:50:33;7.40;;;7.20;;
12800;SDS011;6464;42.494;27.470;2023-09-18T14:53:00;7.60;;;7.40;;
12800;SDS011;6464;42.494;27.470;2023-09-18T14:55:28;7.60;;;7.40;;
12800;SDS011;6464;42.494;27.470;2023-09-18T14:58:00;7.72;;;7.53;;
12800;SDS011;6464;42.494;27.470;2023-09-18T15:00:27;7.57;;;7.38;;
12800;SDS011;6464;42.494;27.470;2023-09-18T15:02:54;7.53;;;7.32;;
12800;SDS011;6464;42.494;27.470;2023-09-18T15:05:21;7.47;;;7.28;;
12800;SDS011;6464;42.494;27.470;2023-09-18T15:07:48;9.32;;;9.02;;
12800;SDS011;6464;42.494;27.470;2023-09-18T15:10:15;8.38;;;8.10;;
12800;SDS011;6464;42.494;27.470;2023-09-18T15:12:43;7.50;;;7.30;;
12800;SDS011;6464;42.494;27.470;2023-09-18T15:15:11;7.35;;;7.15;;
12800;SDS011;6464;42.494;27.470;2023-09-18T15:17:38;7.60;;;7.40;;
12800;SDS011;6464;42.494;27.470;2023-09-18T15:20:05;7.35;;;7.15;;
12800;SDS011;6464;42.494;27.470;2023-09-18T15:22:33;7.30;;;7.10;;
12800;SDS011;6464;42.494;27.470;2023-09-18T15:25:00;7.47;;;7.28;;
12800;SDS011;6464;42.494;27.470;2023-09-18T15:27:27;7.40;;;7.20;;
12800;SDS011;6464;42.494;27.470;2023-09-18T15:29:54;7.03;;;6.82;;
12800;SDS011;6464;42.494;27.470;2023-09-18T15:32:47;7.00;;;6.80;;
12800;SDS011;6464;42.494;27.470;2023-09-18T15:35:18;7.30;;;7.10;;
12800;SDS011;6464;42.494;27.470;2023-09-18T15:37:45;7.45;;;7.25;;
12800;SDS011;6464;42.494;27.470;2023-09-18T15:40:12;7.50;;;7.30;;
12800;SDS011;6464;42.494;27.470;2023-09-18T15:42:42;7.35;;;7.15;;
12800;SDS011;6464;42.494;27.470;2023-09-18T15:45:13;7.38;;;7.18;;
12800;SDS011;6464;42.494;27.470;2023-09-18T15:47:41;7.18;;;6.97;;
12800;SDS011;6464;42.494;27.470;2023-09-18T15:50:10;7.10;;;6.90;;
12800;SDS011;6464;42.494;27.470;2023-09-18T15:52:38;7.03;;;6.82;;
12800;SDS011;6464;42.494;27.470;2023-09-18T15:55:06;6.57;;;6.38;;
12800;SDS011;6464;42.494;27.470;2023-09-18T15:57:35;6.88;;;6.68;;
12800;SDS011;6464;42.494;27.470;2023-09-18T16:00:04;7.00;;;6.80;;
12800;SDS011;6464;42.494;27.470;2023-09-18T16:02:33;7.20;;;7.00;;
12800;SDS011;6464;42.494;27.470;2023-09-18T16:05:01;7.20;;;7.00;;
12800;SDS011;6464;42.494;27.470;2023-09-18T16:07:31;7.40;;;7.20;;
12800;SDS011;6464;42.494;27.470;2023-09-18T16:10:00;6.70;;;6.50;;
12800;SDS011;6464;42.494;27.470;2023-09-18T16:12:27;6.78;;;6.57;;
12800;SDS011;6464;42.494;27.470;2023-09-18T16:14:54;7.20;;;7.00;;
12800;SDS011;6464;42.494;27.470;2023-09-18T16:17:21;7.15;;;6.95;;
12800;SDS011;6464;42.494;27.470;2023-09-18T16:19:48;7.20;;;7.00;;
12800;SDS011;6464;42.494;27.470;2023-09-18T16:22:15;7.20;;;7.00;;
12800;SDS011;6464;42.494;27.470;2023-09-18T16:24:43;6.80;;;6.60;;
12800;SDS011;6464;42.494;27.470;2023-09-18T16:27:10;6.70;;;6.50;;
12800;SDS011;6464;42.494;27.470;2023-09-18T16:29:39;6.80;;;6.60;;
12800;SDS011;6464;42.494;27.470;2023-09-18T16:32:06;6.80;;;6.60;;
12800;SDS011;6464;42.494;27.470;2023-09-18T16:34:33;6.90;;;6.70;;
12800;SDS011;6464;42.494;27.470;2023-09-18T16:37:00;7.07;;;6.88;;
12800;SDS011;6464;42.494;27.470;2023-09-18T16:39:28;6.95;;;6.75;;
12800;SDS011;6464;42.494;27.470;2023-09-18T16:41:57;6.93;;;6.72;;
12800;SDS011;6464;42.494;27.470;2023-09-18T16:44:23;6.78;;;6.57;;
12800;SDS011;6464;42.494;27.470;2023-09-18T16:46:51;6.85;;;6.65;;
12800;SDS011;6464;42.494;27.470;2023-09-18T16:49:18;6.80;;;6.60;;
12800;SDS011;6464;42.494;27.470;2023-09-18T16:51:47;6.70;;;6.50;;
12800;SDS011;6464;42.494;27.470;2023-09-18T16:54:15;6.70;;;6.50;;
12800;SDS011;6464;42.494;27.470;2023-09-18T16:56:42;7.10;;;6.90;;
12800;SDS011;6464;42.494;27.470;2023-09-18T16:59:12;7.07;;;6.88;;
12800;SDS011;6464;42.494;27.470;2023-09-18T17:01:38;7.13;;;6.93;;
12800;SDS011;6464;42.494;27.470;2023-09-18T17:04:05;7.13;;;6.93;;
12800;SDS011;6464;42.494;27.470;2023-09-18T17:06:34;7.50;;;7.30;;
12800;SDS011;6464;42.494;27.470;2023-09-18T17:09:01;7.43;;;7.22;;
12800;SDS011;6464;42.494;27.470;2023-09-18T17:11:29;7.40;;;7.20;;
12800;SDS011;6464;42.494;27.470;2023-09-18T17:13:57;7.00;;;6.80;;
12800;SDS011;6464;42.494;27.470;2023-09-18T17:16:26;7.10;;;6.90;;
12800;SDS011;6464;42.494;27.470;2023-09-18T17:18:52;7.10;;;6.90;;
12800;SDS011;6464;42.494;27.470;2023-09-18T17:21:21;7.20;;;7.00;;
12800;SDS011;6464;42.494;27.470;2023-09-18T17:23:49;7.30;;;7.10;;
12800;SDS011;6464;42.494;27.470;2023-09-18T17:26:17;7.40;;;7.20;;
12800;SDS011;6464;42.494;27.470;2023-09-18T17:28:44;7.28;;;7.07;;
12800;SDS011;6464;42.494;27.470;2023-09-18T17:31:11;7.15;;;6.95;;
12800;SDS011;6464;42.494;27.470;2023-09-18T17:33:39;7.10;;;6.90;;
12800;SDS011;6464;42.494;27.470;2023-09-18T17:36:06;7.60;;;7.40;;
12800;SDS011;6464;42.494;27.470;2023-09-18T17:41:01;7.60;;;7.40;;
12800;SDS011;6464;42.494;27.470;2023-09-18T17:43:29;7.50;;;7.30;;
12800;SDS011;6464;42.494;27.470;2023-09-18T17:45:57;7.43;;;7.22;;
12800;SDS011;6464;42.494;27.470;2023-09-18T17:48:24;7.40;;;7.20;;
12800;SDS011;6464;42.494;27.470;2023-09-18T17:50:52;7.53;;;7.32;;
12800;SDS011;6464;42.494;27.470;2023-09-18T17:53:20;7.35;;;7.15;;
12800;SDS011;6464;42.494;27.470;2023-09-18T17:55:53;7.47;;;7.28;;
12800;SDS011;6464;42.494;27.470;2023-09-18T17:58:36;6.10;;;6.00;;
12800;SDS011;6464;42.494;27.470;2023-09-18T18:01:03;6.80;;;6.60;;
12800;SDS011;6464;42.494;27.470;2023-09-18T18:03:33;6.90;;;6.70;;
12800;SDS011;6464;42.494;27.470;2023-09-18T18:09:54;6.70;;;6.50;;
12800;SDS011;6464;42.494;27.470;2023-09-18T18:12:21;6.80;;;6.60;;
12800;SDS011;6464;42.494;27.470;2023-09-18T18:14:52;6.85;;;6.65;;
12800;SDS011;6464;42.494;27.470;2023-09-18T18:17:31;7.20;;;7.00;;
12800;SDS011;6464;42.494;27.470;2023-09-18T18:22:54;6.95;;;6.75;;
12800;SDS011;6464;42.494;27.470;2023-09-18T18:26:07;7.10;;;6.90;;
12800;SDS011;6464;42.494;27.470;2023-09-18T18:28:36;7.25;;;7.05;;
12800;SDS011;6464;42.494;27.470;2023-09-18T18:31:27;7.30;;;7.10;;
12800;SDS011;6464;42.494;27.470;2023-09-18T18:34:03;7.20;;;7.00;;
12800;SDS011;6464;42.494;27.470;2023-09-18T18:36:47;7.25;;;7.05;;
12800;SDS011;6464;42.494;27.470;2023-09-18T18:39:24;7.18;;;6.97;;
12800;SDS011;6464;42.494;27.470;2023-09-18T18:51:46;6.93;;;6.72;;
12800;SDS011;6464;42.494;27.470;2023-09-18T18:54:51;7.10;;;6.90;;
12800;SDS011;6464;42.494;27.470;2023-09-18T19:03:25;7.10;;;6.90;;
12800;SDS011;6464;42.494;27.470;2023-09-18T19:05:58;7.30;;;7.10;;
12800;SDS011;6464;42.494;27.470;2023-09-18T19:08:25;7.30;;;7.10;;
12800;SDS011;6464;42.494;27.470;2023-09-18T19:10:52;7.30;;;7.10;;
12800;SDS011;6464;42.494;27.470;2023-09-18T19:13:19;7.25;;;7.05;;
12800;SDS011;6464;42.494;27.470;2023-09-18T19:19:00;7.60;;;7.40;;
12800;SDS011;6464;42.494;27.470;2023-09-18T19:21:36;7.60;;;7.40;;
12800;SDS011;6464;42.494;27.470;2023-09-18T19:24:09;7.70;;;7.50;;
12800;SDS011;6464;42.494;27.470;2023-09-18T19:26:37;7.65;;;7.45;;
12800;SDS011;6464;42.494;27.470;2023-09-18T19:29:04;7.50;;;7.30;;
12800;SDS011;6464;42.494;27.470;2023-09-18T19:31:31;7.40;;;7.20;;
12800;SDS011;6464;42.494;27.470;2023-09-18T19:33:59;7.10;;;6.90;;
12800;SDS011;6464;42.494;27.470;2023-09-18T19:36:33;7.40;;;7.20;;
12800;SDS011;6464;42.494;27.470;2023-09-18T19:39:36;6.82;;;6.63;;
12800;SDS011;6464;42.494;27.470;2023-09-18T19:42:18;7.10;;;6.90;;
12800;SDS011;6464;42.494;27.470;2023-09-18T19:48:27;7.18;;;6.97;;
12800;SDS011;6464;42.494;27.470;2023-09-18T19:50:56;7.15;;;6.95;;
12800;SDS011;6464;42.494;27.470;2023-09-18T19:53:42;6.97;;;6.78;;
12800;SDS011;6464;42.494;27.470;2023-09-18T19:56:18;7.10;;;6.90;;
12800;SDS011;6464;42.494;27.470;2023-09-18T19:59:15;7.40;;;7.20;;
12800;SDS011;6464;42.494;27.470;2023-09-18T20:16:20;7.10;;;6.90;;
12800;SDS011;6464;42.494;27.470;2023-09-18T20:28:12;7.30;;;7.10;;
12800;SDS011;6464;42.494;27.470;2023-09-18T21:17:50;6.95;;;6.75;;
12800;SDS011;6464;42.494;27.470;2023-09-18T21:21:05;7.03;;;6.82;;
12800;SDS011;6464;42.494;27.470;2023-09-18T21:24:22;6.95;;;6.75;;
